Time;durP1;ratioP1;P1;durP2;ratioP2;P2;SDS_P1;SDS_P2;PMS_P1;PMS_P2;Temp;Humidity;BMP_temperature;BMP_pressure;BME280_temperature;BME280_humidity;BME280_pressure;Samples;Min_cycle;Max_cycle;Signal;HPM_P1;HPM_P2
2024/04/19 00:01:24;;;;;;;4.90;4.50;;;5.20;99.90;;;;;;5369675;26;20372;-82
2024/04/19 00:03:50;;;;;;;5.00;4.50;;;5.20;99.90;;;;;;5348245;26;20336;-83
2024/04/19 00:06:16;;;;;;;5.45;4.55;;;5.20;99.90;;;;;;5353124;26;20372;-82
2024/04/19 00:08:41;;;;;;;4.90;4.40;;;4.90;99.90;;;;;;5355552;26;20321;-82
2024/04/19 00:11:07;;;;;;;4.97;4.50;;;5.30;99.90;;;;;;5352250;26;20332;-82
2024/04/19 00:13:32;;;;;;;5.45;4.70;;;5.30;99.90;;;;;;5355625;26;20325;-81
2024/04/19 00:15:58;;;;;;;5.70;4.60;;;5.00;99.90;;;;;;5362025;26;20386;-82
2024/04/19 00:18:25;;;;;;;5.43;4.93;;;4.90;99.90;;;;;;5333845;26;20389;-82
2024/04/19 00:20:51;;;;;;;4.90;4.50;;;5.00;99.90;;;;;;5350066;26;20341;-82
2024/04/19 00:23:16;;;;;;;5.10;4.60;;;5.20;99.90;;;;;;5346633;26;21128;-82
2024/04/19 00:25:42;;;;;;;5.40;4.90;;;4.90;99.90;;;;;;5357393;26;20444;-82
2024/04/19 00:28:07;;;;;;;5.40;4.90;;;5.10;99.90;;;;;;5368521;26;20882;-82
2024/04/19 00:30:33;;;;;;;4.97;4.47;;;5.30;99.90;;;;;;5342167;26;20367;-82
2024/04/19 00:32:59;;;;;;;5.10;4.60;;;5.10;99.90;;;;;;5361982;26;20442;-82
2024/04/19 00:35:24;;;;;;;4.50;4.10;;;4.70;99.90;;;;;;5348128;26;20421;-83
2024/04/19 00:37:50;;;;;;;4.90;4.40;;;5.00;99.90;;;;;;5351541;26;20390;-82
2024/04/19 00:40:17;;;;;;;5.18;4.70;;;5.50;99.90;;;;;;5352413;26;20369;-82
2024/04/19 00:42:42;;;;;;;5.22;4.70;;;5.00;99.90;;;;;;5378165;26;20325;-82
2024/04/19 00:45:38;;;;;;;4.70;4.28;;;5.10;99.90;;;;;;5351085;26;20332;-82
2024/04/19 00:48:16;;;;;;;5.18;4.35;;;5.00;99.90;;;;;;5340612;26;20436;-82
2024/04/19 00:50:44;;;;;;;5.28;4.65;;;4.90;99.90;;;;;;5376069;26;20437;-82
2024/04/19 00:53:10;;;;;;;4.40;4.00;;;4.80;99.90;;;;;;5347285;26;20344;-82
2024/04/19 00:55:37;;;;;;;4.68;4.18;;;4.70;99.90;;;;;;5345264;26;20359;-82
2024/04/19 00:58:03;;;;;;;5.53;4.75;;;4.60;99.90;;;;;;5345474;26;20333;-82
2024/04/19 01:00:29;;;;;;;6.80;4.50;;;5.00;99.90;;;;;;5364731;26;20405;-82
2024/04/19 01:02:56;;;;;;;5.25;4.75;;;4.20;99.90;;;;;;5350119;26;20368;-83
2024/04/19 01:05:23;;;;;;;5.97;5.10;;;4.50;99.90;;;;;;5359153;26;20330;-82
2024/04/19 01:07:49;;;;;;;5.60;5.10;;;4.80;99.90;;;;;;5369960;26;20374;-82
2024/04/19 01:10:15;;;;;;;4.97;4.10;;;4.80;99.90;;;;;;5361784;26;20403;-82
2024/04/19 01:12:41;;;;;;;5.50;5.00;;;4.60;99.90;;;;;;5358679;26;20713;-83
2024/04/19 01:15:16;;;;;;;5.60;5.10;;;4.70;99.90;;;;;;5357940;26;20360;-82
2024/04/19 01:17:42;;;;;;;5.93;4.68;;;4.60;99.90;;;;;;5367380;26;20393;-83
2024/04/19 01:20:08;;;;;;;5.97;4.90;;;4.80;99.90;;;;;;5366575;26;20369;-83
2024/04/19 01:22:33;;;;;;;5.60;4.30;;;4.90;99.90;;;;;;5353101;26;20345;-82
2024/04/19 01:25:00;;;;;;;6.50;4.63;;;4.80;99.90;;;;;;5348749;26;20375;-82
2024/04/19 01:27:26;;;;;;;6.25;5.40;;;4.50;99.90;;;;;;5349967;26;20403;-83
2024/04/19 01:29:51;;;;;;;5.40;4.90;;;4.40;99.90;;;;;;5353010;26;20329;-83
2024/04/19 01:32:17;;;;;;;5.77;5.00;;;4.40;99.90;;;;;;5351376;26;20357;-82
2024/04/19 01:34:42;;;;;;;6.20;5.60;;;4.80;99.90;;;;;;5356526;26;20329;-82
2024/04/19 01:37:07;;;;;;;5.50;5.00;;;4.50;99.90;;;;;;5372649;26;20338;-82
2024/04/19 01:39:33;;;;;;;6.03;4.73;;;4.50;99.90;;;;;;5362212;26;20357;-82
2024/04/19 01:41:58;;;;;;;5.93;4.78;;;4.70;99.90;;;;;;5347397;26;20336;-82
2024/04/19 01:44:24;;;;;;;4.40;4.00;;;4.40;99.90;;;;;;5347411;26;20373;-83
2024/04/19 01:46:49;;;;;;;5.63;4.87;;;4.50;99.90;;;;;;5340507;26;20339;-83
2024/04/19 01:49:15;;;;;;;5.27;4.77;;;4.60;99.90;;;;;;5352754;26;20372;-83
2024/04/19 01:51:40;;;;;;;5.60;4.97;;;4.30;99.90;;;;;;5355617;26;20353;-82
2024/04/19 01:54:06;;;;;;;5.70;5.10;;;4.20;99.90;;;;;;5346953;26;20321;-83
2024/04/19 01:56:31;;;;;;;5.40;4.90;;;4.60;99.90;;;;;;5351527;26;20341;-82
2024/04/19 01:58:57;;;;;;;5.10;4.65;;;4.40;99.90;;;;;;5351194;26;20337;-82
2024/04/19 02:01:22;;;;;;;5.22;4.72;;;4.60;99.90;;;;;;5359083;26;20712;-82
2024/04/19 02:03:48;;;;;;;5.47;4.95;;;4.40;99.90;;;;;;5345739;26;20376;-82
2024/04/19 02:06:15;;;;;;;5.00;4.50;;;4.20;99.90;;;;;;5367663;26;20330;-83
2024/04/19 02:08:41;;;;;;;5.30;4.80;;;4.20;99.90;;;;;;5350123;26;20924;-83
2024/04/19 02:11:07;;;;;;;5.82;5.32;;;4.80;99.90;;;;;;5367312;26;20338;-82
2024/04/19 02:13:33;;;;;;;5.90;4.60;;;4.50;99.90;;;;;;5358989;26;20340;-83
2024/04/19 02:15:59;;;;;;;5.55;5.05;;;4.30;99.90;;;;;;5350237;26;20924;-83
2024/04/19 02:18:25;;;;;;;6.05;5.45;;;4.30;99.90;;;;;;5347619;26;20328;-82
2024/04/19 02:20:51;;;;;;;5.93;5.03;;;4.30;99.90;;;;;;5364324;26;20368;-82
2024/04/19 02:23:36;;;;;;;6.00;5.40;;;4.20;99.90;;;;;;5359286;26;20337;-82
2024/04/19 02:26:06;;;;;;;6.27;5.23;;;4.20;99.90;;;;;;5365298;26;20478;-83
2024/04/19 02:31:21;;;;;;;6.00;5.40;;;4.40;99.90;;;;;;5370285;26;20464;-84
2024/04/19 02:33:48;;;;;;;5.63;5.03;;;4.20;99.90;;;;;;5351554;26;20821;-82
2024/04/19 02:36:13;;;;;;;6.32;5.47;;;4.40;99.90;;;;;;5350490;26;20344;-82
2024/04/19 02:38:39;;;;;;;5.90;5.30;;;4.30;99.90;;;;;;5353885;26;20388;-82
2024/04/19 02:41:05;;;;;;;6.00;5.40;;;5.80;99.90;;;;;;5412713;21;20341;-85
2024/04/19 02:43:31;;;;;;;5.68;5.18;;;3.90;99.90;;;;;;5359539;26;20354;-84
2024/04/19 02:46:00;;;;;;;5.88;5.28;;;4.00;99.90;;;;;;5337548;26;20329;-85
2024/04/19 02:48:26;;;;;;;5.80;5.20;;;3.90;99.90;;;;;;5365744;26;20411;-84
2024/04/19 02:50:53;;;;;;;5.70;5.20;;;4.10;99.90;;;;;;5343026;26;20756;-85
2024/04/19 02:53:18;;;;;;;7.05;5.50;;;3.60;99.90;;;;;;5338024;26;20340;-84
2024/04/19 02:55:44;;;;;;;5.80;5.20;;;3.90;99.90;;;;;;5341395;26;20419;-84
2024/04/19 02:58:10;;;;;;;6.28;5.38;;;;;;;;;;5326398;26;20718;-85
2024/04/19 03:00:35;;;;;;;6.95;5.30;;;4.20;99.90;;;;;;5343242;26;20351;-84
2024/04/19 03:03:01;;;;;;;6.60;5.27;;;3.50;99.90;;;;;;5336430;26;20383;-84
2024/04/19 03:05:26;;;;;;;6.37;5.10;;;3.80;99.90;;;;;;5329769;26;20359;-85
2024/04/19 03:07:52;;;;;;;6.37;5.70;;;3.80;99.90;;;;;;5332732;26;20450;-85
2024/04/19 03:10:18;;;;;;;5.53;5.00;;;3.90;99.90;;;;;;5341280;26;20365;-84
2024/04/19 03:12:43;;;;;;;5.85;5.13;;;3.60;99.90;;;;;;5354626;26;20328;-83
2024/04/19 03:15:09;;;;;;;5.30;4.80;;;3.90;99.90;;;;;;5333858;26;20321;-84
2024/04/19 03:17:34;;;;;;;5.93;5.32;;;3.90;99.90;;;;;;5340962;26;20365;-85
2024/04/19 03:20:00;;;;;;;6.18;5.53;;;4.00;99.90;;;;;;5342856;26;20345;-84
2024/04/19 03:22:25;;;;;;;6.50;5.50;;;3.30;99.90;;;;;;5336051;26;20329;-83
2024/04/19 03:24:51;;;;;;;6.00;5.40;;;3.40;99.90;;;;;;5325290;26;20365;-84
2024/04/19 03:27:16;;;;;;;6.37;5.37;;;3.90;99.90;;;;;;5336971;26;20329;-85
2024/04/19 03:29:42;;;;;;;5.83;5.30;;;3.90;99.90;;;;;;5338072;26;20337;-84
2024/04/19 03:32:07;;;;;;;6.83;5.50;;;3.90;99.90;;;;;;5328514;26;20427;-85
2024/04/19 03:34:33;;;;;;;6.50;5.50;;;3.60;99.90;;;;;;5332470;26;20500;-85
2024/04/19 03:36:58;;;;;;;6.22;5.38;;;3.70;99.90;;;;;;5332803;26;20380;-82
2024/04/19 03:39:24;;;;;;;5.80;5.25;;;3.90;99.90;;;;;;5352466;26;20324;-86
2024/04/19 03:41:51;;;;;;;7.22;5.30;;;3.90;99.90;;;;;;5331339;26;20339;-85
2024/04/19 03:47:01;;;;;;;6.90;5.70;;;4.40;99.90;;;;;;5323764;26;20446;-86
2024/04/19 03:49:26;;;;;;;6.67;5.87;;;4.20;99.90;;;;;;5326562;26;20345;-85
2024/04/19 03:51:53;;;;;;;5.80;5.20;;;3.80;99.90;;;;;;5324911;26;20401;-85
2024/04/19 03:54:18;;;;;;;5.63;5.13;;;4.10;99.90;;;;;;5328771;26;20348;-86
2024/04/19 03:56:44;;;;;;;7.50;5.40;;;4.10;99.90;;;;;;5327691;26;20721;-85
2024/04/19 03:59:09;;;;;;;6.80;5.27;;;3.80;99.90;;;;;;5337198;26;20348;-86
2024/04/19 04:01:35;;;;;;;5.20;4.70;;;4.60;99.90;;;;;;5330970;26;20422;-85
2024/04/19 04:04:01;;;;;;;5.40;4.90;;;4.30;99.90;;;;;;5340113;26;20327;-85
2024/04/19 04:06:27;;;;;;;5.30;4.40;;;4.30;99.90;;;;;;5340672;26;20331;-85
2024/04/19 04:08:53;;;;;;;4.80;4.40;;;4.10;99.90;;;;;;5340284;26;20343;-84
2024/04/19 04:11:19;;;;;;;4.60;4.00;;;;;;;;;;5335175;26;20554;-85
2024/04/19 04:13:45;;;;;;;5.32;4.82;;;4.10;99.90;;;;;;5341180;26;20332;-86
2024/04/19 04:16:10;;;;;;;5.43;4.22;;;3.10;99.90;;;;;;5328884;26;20426;-86
2024/04/19 04:18:36;;;;;;;4.97;4.47;;;4.20;99.90;;;;;;5325095;26;20325;-85
2024/04/19 04:21:02;;;;;;;5.68;4.50;;;4.30;99.90;;;;;;5327743;26;20450;-84
2024/04/19 04:23:29;;;;;;;6.03;4.30;;;4.30;99.90;;;;;;5335502;26;20366;-83
2024/04/19 04:25:55;;;;;;;5.50;4.40;;;4.00;99.90;;;;;;5334679;26;20337;-83
2024/04/19 04:28:20;;;;;;;4.78;4.38;;;4.20;99.90;;;;;;5334272;26;20384;-84
2024/04/19 04:30:46;;;;;;;6.30;4.50;;;4.20;99.90;;;;;;5329287;26;20445;-83
2024/04/19 04:33:11;;;;;;;5.67;4.70;;;4.10;99.90;;;;;;5330225;26;20372;-84
2024/04/19 04:35:37;;;;;;;5.63;5.07;;;4.20;99.90;;;;;;5327337;26;20360;-83
2024/04/19 04:38:04;;;;;;;6.80;4.90;;;4.10;99.90;;;;;;5328901;26;20435;-84
2024/04/19 04:40:31;;;;;;;4.68;4.18;;;4.70;99.90;;;;;;5328389;26;20333;-83
2024/04/19 04:42:58;;;;;;;5.70;4.30;;;4.40;99.90;;;;;;5331329;26;20380;-83
2024/04/19 04:45:23;;;;;;;5.32;4.82;;;4.10;99.90;;;;;;5340809;26;20383;-83
2024/04/19 04:47:49;;;;;;;6.78;5.47;;;4.60;99.90;;;;;;5333629;26;20325;-85
2024/04/19 04:50:15;;;;;;;5.15;4.65;;;4.40;99.90;;;;;;5328401;26;21060;-85
2024/04/19 04:52:40;;;;;;;5.38;4.80;;;4.50;99.90;;;;;;5324203;26;20341;-85
2024/04/19 04:55:06;;;;;;;4.90;4.40;;;4.30;99.90;;;;;;5323270;26;20387;-85
2024/04/19 04:57:32;;;;;;;6.00;5.40;;;4.20;99.90;;;;;;5321053;26;20439;-86
2024/04/19 04:59:58;;;;;;;5.05;4.50;;;4.70;99.90;;;;;;5323845;26;20348;-86
2024/04/19 05:02:24;;;;;;;5.30;4.80;;;4.50;99.90;;;;;;5321473;26;20378;-85
2024/04/19 05:04:50;;;;;;;5.53;4.90;;;4.20;99.90;;;;;;5322388;26;20371;-86
2024/04/19 05:07:15;;;;;;;9.97;5.63;;;4.70;99.90;;;;;;5323467;26;20331;-86
2024/04/19 05:09:41;;;;;;;5.43;4.93;;;4.60;99.90;;;;;;5322042;26;20599;-85
2024/04/19 05:12:08;;;;;;;5.80;4.80;;;4.60;99.90;;;;;;5329575;26;20401;-87
2024/04/19 05:14:33;;;;;;;6.60;5.77;;;4.60;99.90;;;;;;5321804;26;20823;-85
2024/04/19 05:16:59;;;;;;;6.47;5.87;;;5.00;99.90;;;;;;5331857;26;20347;-86
2024/04/19 05:19:24;;;;;;;6.53;5.50;;;5.90;99.90;;;;;;5327976;26;20333;-85
2024/04/19 05:21:50;;;;;;;6.63;5.00;;;5.30;99.90;;;;;;5327607;26;20838;-85
2024/04/19 05:24:15;;;;;;;6.60;5.13;;;6.10;99.90;;;;;;5323520;26;20361;-85
2024/04/19 05:26:41;;;;;;;4.57;4.15;;;6.50;99.90;;;;;;5327301;26;20365;-84
2024/04/19 05:29:06;;;;;;;5.30;4.80;;;6.60;99.90;;;;;;5325227;26;20352;-84
2024/04/19 05:31:32;;;;;;;5.05;4.55;;;6.60;99.90;;;;;;5328403;26;20702;-85
2024/04/19 05:33:57;;;;;;;6.33;5.10;;;6.60;99.90;;;;;;5326666;26;20377;-85
2024/04/19 05:36:23;;;;;;;7.43;5.40;;;6.50;99.90;;;;;;5327058;26;20408;-85
2024/04/19 05:38:48;;;;;;;6.30;5.20;;;6.10;99.90;;;;;;5327331;26;20391;-84
2024/04/19 05:41:14;;;;;;;5.20;4.40;;;6.50;99.90;;;;;;5339857;26;20383;-82
2024/04/19 05:43:39;;;;;;;5.55;4.93;;;6.60;99.90;;;;;;5341176;26;20393;-84
2024/04/19 05:46:05;;;;;;;5.50;5.00;;;9.00;99.90;;;;;;5324691;26;20468;-84
2024/04/19 05:48:31;;;;;;;6.10;5.00;;;6.40;99.90;;;;;;5340029;26;20842;-84
2024/04/19 05:50:56;;;;;;;6.43;5.40;;;6.70;99.90;;;;;;5336585;26;20342;-83
2024/04/19 05:53:22;;;;;;;5.07;4.13;;;6.50;99.90;;;;;;5319841;26;20339;-83
2024/04/19 05:55:47;;;;;;;6.10;4.97;;;6.70;99.90;;;;;;5352653;26;20501;-83
2024/04/19 05:58:13;;;;;;;5.30;4.60;;;6.60;99.90;;;;;;5352332;26;20335;-82
2024/04/19 06:00:39;;;;;;;7.22;5.40;;;6.70;99.90;;;;;;5337028;26;20730;-85
2024/04/19 06:03:04;;;;;;;6.70;5.33;;;6.80;99.90;;;;;;5349604;26;20410;-86
2024/04/19 06:05:30;;;;;;;5.70;5.20;;;6.70;99.90;;;;;;5350293;26;20423;-84
2024/04/19 06:07:56;;;;;;;5.50;5.00;;;6.70;99.90;;;;;;5352959;26;20329;-85
2024/04/19 06:10:21;;;;;;;6.30;5.70;;;6.80;99.90;;;;;;5341796;26;20458;-83
2024/04/19 06:12:47;;;;;;;5.80;5.20;;;6.50;99.90;;;;;;5331906;26;20431;-85
2024/04/19 06:15:12;;;;;;;5.80;4.97;;;7.40;99.90;;;;;;5323125;26;20498;-81
2024/04/19 06:17:38;;;;;;;5.03;4.53;;;6.90;99.90;;;;;;5350292;26;20336;-84
2024/04/19 06:20:04;;;;;;;5.90;5.30;;;7.00;99.90;;;;;;5336725;26;20331;-82
2024/04/19 06:22:30;;;;;;;8.15;5.20;;;6.70;99.90;;;;;;5305266;26;20381;-83
2024/04/19 06:24:56;;;;;;;5.23;4.70;;;6.90;99.90;;;;;;5307462;26;20341;-84
2024/04/19 06:27:22;;;;;;;6.47;5.50;;;6.10;99.90;;;;;;5313420;26;20340;-83
2024/04/19 06:29:49;;;;;;;5.82;5.22;;;7.00;99.90;;;;;;5300607;26;20347;-83
2024/04/19 06:32:18;;;;;;;7.57;5.60;;;6.50;99.90;;;;;;5312827;26;20444;-83
2024/04/19 06:34:49;;;;;;;6.28;5.68;;;6.60;99.90;;;;;;5304707;27;20691;-85
2024/04/19 06:37:14;;;;;;;6.30;5.00;;;8.00;99.90;;;;;;5306452;27;20346;-83
2024/04/19 06:39:40;;;;;;;6.82;4.70;;;7.30;99.90;;;;;;5315371;27;20371;-83
2024/04/19 06:42:05;;;;;;;6.87;5.03;;;6.50;99.90;;;;;;5303302;26;20346;-84
2024/04/19 06:44:31;;;;;;;6.10;4.80;;;7.20;99.90;;;;;;5288272;26;20832;-84
2024/04/19 06:46:56;;;;;;;5.80;4.90;;;7.00;99.90;;;;;;5300344;27;20440;-84
2024/04/19 06:49:23;;;;;;;6.20;5.60;;;6.50;99.90;;;;;;5313267;26;20320;-83
2024/04/19 06:51:49;;;;;;;6.70;6.00;;;7.00;99.90;;;;;;5320840;26;20372;-83
2024/04/19 06:54:14;;;;;;;6.53;5.80;;;7.20;99.90;;;;;;5310161;26;20347;-83
2024/04/19 06:56:40;;;;;;;5.93;5.10;;;7.20;99.90;;;;;;5296572;26;20715;-83
2024/04/19 06:59:07;;;;;;;6.68;6.05;;;7.00;99.90;;;;;;5314478;26;20331;-82
2024/04/19 07:01:34;;;;;;;6.25;5.40;;;7.20;99.90;;;;;;5302773;26;20332;-83
2024/04/19 07:03:59;;;;;;;6.97;5.47;;;7.10;99.90;;;;;;5315013;26;20328;-83
2024/04/19 07:06:25;;;;;;;7.07;6.00;;;7.10;99.90;;;;;;5295793;26;20377;-82
2024/04/19 07:08:50;;;;;;;6.00;5.40;;;7.10;99.90;;;;;;5302613;26;20334;-83
2024/04/19 07:11:16;;;;;;;6.80;6.00;;;7.30;99.90;;;;;;5300099;26;20358;-83
2024/04/19 07:13:46;;;;;;;7.05;6.35;;;7.30;99.90;;;;;;5309074;26;20741;-85
2024/04/19 07:16:12;;;;;;;6.05;5.45;;;8.40;99.90;;;;;;5336806;26;20377;-82
2024/04/19 07:18:37;;;;;;;8.00;6.82;;;7.60;99.90;;;;;;5345357;26;20376;-84
2024/04/19 07:21:03;;;;;;;6.33;5.40;;;7.30;99.90;;;;;;5343160;26;20340;-84
2024/04/19 07:23:29;;;;;;;8.03;5.40;;;7.50;99.90;;;;;;5340930;26;20395;-82
2024/04/19 07:25:54;;;;;;;6.10;5.30;;;7.40;99.90;;;;;;5344117;26;20335;-82
2024/04/19 07:28:20;;;;;;;6.70;5.60;;;7.30;99.90;;;;;;5355907;26;20365;-83
2024/04/19 07:30:46;;;;;;;5.60;5.07;;;7.50;99.90;;;;;;5340946;26;20360;-83
2024/04/19 07:33:11;;;;;;;7.22;5.80;;;7.20;99.90;;;;;;5329055;26;20710;-85
2024/04/19 07:35:37;;;;;;;8.02;5.80;;;7.20;99.90;;;;;;5343605;26;20332;-83
2024/04/19 07:38:03;;;;;;;6.57;5.88;;;6.90;99.90;;;;;;5357005;26;20325;-84
2024/04/19 07:40:28;;;;;;;6.90;5.70;;;7.20;99.90;;;;;;5348906;26;20365;-83
2024/04/19 07:42:54;;;;;;;8.23;6.70;;;7.00;99.90;;;;;;5351584;26;20337;-83
2024/04/19 07:45:22;;;;;;;7.73;6.00;;;7.20;99.90;;;;;;5356870;26;20324;-83
2024/04/19 07:47:49;;;;;;;7.10;6.33;;;7.10;99.90;;;;;;5354593;26;20947;-86
2024/04/19 07:50:35;;;;;;;7.03;6.43;;;7.20;99.90;;;;;;5347730;26;20336;-83
2024/04/19 07:53:01;;;;;;;7.22;6.40;;;6.80;99.90;;;;;;5346423;26;20443;-85
2024/04/19 07:55:26;;;;;;;8.68;6.28;;;7.10;99.90;;;;;;5350126;26;20325;-83
2024/04/19 07:57:52;;;;;;;7.72;5.50;;;6.20;99.90;;;;;;5346719;26;20418;-84
2024/04/19 08:00:17;;;;;;;6.37;5.60;;;7.20;99.90;;;;;;5348357;26;20763;-86
2024/04/19 08:02:47;;;;;;;7.65;5.82;;;7.10;99.90;;;;;;5334038;26;20332;-83
2024/04/19 08:05:13;;;;;;;6.40;5.55;;;7.30;99.90;;;;;;5339493;26;20387;-83
2024/04/19 08:07:38;;;;;;;8.38;6.55;;;7.30;99.90;;;;;;5348956;26;20329;-83
2024/04/19 08:10:05;;;;;;;7.30;5.90;;;7.20;99.90;;;;;;5356545;26;20765;-85
2024/04/19 08:12:30;;;;;;;6.88;5.82;;;7.40;99.90;;;;;;5323047;26;20377;-85
2024/04/19 08:14:56;;;;;;;7.30;6.18;;;6.70;99.90;;;;;;5357026;26;20333;-83
2024/04/19 08:17:21;;;;;;;6.35;5.75;;;6.90;99.90;;;;;;5350371;26;20379;-83
2024/04/19 08:19:49;;;;;;;6.70;5.68;;;7.30;99.90;;;;;;5338943;26;20366;-82
2024/04/19 08:22:15;;;;;;;5.80;5.20;;;7.00;99.90;;;;;;5344669;26;20369;-84
2024/04/19 08:24:41;;;;;;;6.40;5.65;;;7.20;99.90;;;;;;5337701;26;20325;-83
2024/04/19 08:27:07;;;;;;;9.05;7.05;;;7.10;99.90;;;;;;5346825;26;20341;-84
2024/04/19 08:29:33;;;;;;;9.18;7.00;;;7.20;99.90;;;;;;5340629;26;20375;-82
2024/04/19 08:31:58;;;;;;;8.18;6.50;;;6.70;99.90;;;;;;5326560;26;20903;-85
2024/04/19 08:34:24;;;;;;;6.80;5.60;;;6.60;99.90;;;;;;5348802;26;20352;-85
2024/04/19 08:36:49;;;;;;;6.43;5.73;;;7.50;99.90;;;;;;5330493;26;20346;-84
2024/04/19 08:39:15;;;;;;;7.77;6.17;;;7.10;99.90;;;;;;5337188;26;20332;-83
2024/04/19 08:41:44;;;;;;;6.40;5.80;;;7.10;99.90;;;;;;5403950;21;20332;-81
2024/04/19 08:44:10;;;;;;;5.80;5.30;;;7.10;99.90;;;;;;5415123;26;20331;-80
2024/04/19 08:46:37;;;;;;;6.82;5.90;;;6.90;99.90;;;;;;5413466;26;20372;-79
2024/04/19 08:49:04;;;;;;;7.07;5.78;;;6.90;99.90;;;;;;5413180;26;20371;-80
2024/04/19 08:51:30;;;;;;;5.93;5.28;;;7.00;99.90;;;;;;5386509;26;20346;-80
2024/04/19 08:53:57;;;;;;;6.32;5.72;;;7.20;99.90;;;;;;5379777;26;20318;-80
2024/04/19 08:56:24;;;;;;;5.93;5.32;;;5.90;99.90;;;;;;5379311;26;20374;-80
2024/04/19 08:58:53;;;;;;;9.90;5.88;;;6.80;99.90;;;;;;5379419;26;20357;-81
2024/04/19 09:01:19;;;;;;;7.57;6.45;;;6.80;99.90;;;;;;5378133;26;20370;-80
2024/04/19 09:03:45;;;;;;;6.10;5.50;;;6.90;99.90;;;;;;5379743;26;20330;-80
2024/04/19 09:06:13;;;;;;;5.97;5.47;;;6.90;99.90;;;;;;5378410;26;20827;-79
2024/04/19 09:08:39;;;;;;;7.57;6.20;;;6.40;99.90;;;;;;5378620;26;20322;-78
2024/04/19 09:11:12;;;;;;;7.00;5.88;;;7.00;99.90;;;;;;5376964;26;20736;-78
2024/04/19 09:13:37;;;;;;;6.10;5.47;;;6.90;99.90;;;;;;5378031;26;20361;-78
2024/04/19 09:16:03;;;;;;;6.57;5.73;;;7.00;99.90;;;;;;5378500;26;20734;-78
2024/04/19 09:18:30;;;;;;;7.30;6.10;;;6.90;99.90;;;;;;5377914;26;20382;-78
2024/04/19 09:20:55;;;;;;;6.55;5.85;;;6.60;99.90;;;;;;5378327;26;20761;-77
2024/04/19 09:23:21;;;;;;;8.63;6.75;;;6.50;99.90;;;;;;5377743;26;20330;-79
2024/04/19 09:25:54;;;;;;;8.95;6.07;;;6.40;99.90;;;;;;5377537;26;20382;-78
2024/04/19 09:28:20;;;;;;;7.95;6.45;;;6.40;99.90;;;;;;5378692;26;20374;-77
2024/04/19 09:30:46;;;;;;;9.07;7.22;;;6.60;99.90;;;;;;5378368;26;20675;-78
2024/04/19 09:33:21;;;;;;;7.78;6.97;;;6.40;99.90;;;;;;5377523;26;20334;-79
2024/04/19 09:35:50;;;;;;;6.55;5.82;;;8.00;99.90;;;;;;5379200;26;20357;-78
2024/04/19 09:38:17;;;;;;;7.45;6.68;;;6.20;99.90;;;;;;5376029;26;20337;-78
2024/04/19 09:40:46;;;;;;;7.95;7.10;;;6.20;99.90;;;;;;5342888;26;20337;-78
2024/04/19 09:43:14;;;;;;;8.48;6.97;;;6.50;99.90;;;;;;5344341;26;20369;-79
2024/04/19 09:45:47;;;;;;;7.80;6.95;;;5.80;99.90;;;;;;5343352;26;20361;-78
2024/04/19 09:48:17;;;;;;;7.07;6.30;;;6.30;99.90;;;;;;5343575;26;20376;-78
2024/04/19 09:50:49;;;;;;;9.05;7.60;;;6.50;99.90;;;;;;5343668;26;20408;-78
2024/04/19 09:53:41;;;;;;;8.75;6.40;;;6.30;99.90;;;;;;5344033;26;20377;-78
2024/04/19 09:56:25;;;;;;;9.05;7.60;;;6.10;99.90;;;;;;5355319;26;20866;-78
2024/04/19 09:58:52;;;;;;;9.02;7.20;;;6.50;99.90;;;;;;5378443;26;20322;-78
2024/04/19 10:01:19;;;;;;;9.35;8.02;;;6.20;99.90;;;;;;5377176;26;20365;-77
2024/04/19 10:03:46;;;;;;;7.50;6.63;;;6.50;99.90;;;;;;5377576;26;20322;-78
2024/04/19 10:06:13;;;;;;;9.75;8.00;;;6.30;99.90;;;;;;5378711;26;20382;-79
2024/04/19 10:08:40;;;;;;;10.07;8.48;;;6.40;99.90;;;;;;5379239;26;20431;-80
2024/04/19 10:11:06;;;;;;;8.50;7.53;;;6.40;99.90;;;;;;5379978;26;20371;-82
2024/04/19 10:13:32;;;;;;;8.18;7.35;;;6.30;99.90;;;;;;5379411;26;20338;-79
2024/04/19 10:15:58;;;;;;;9.90;7.43;;;6.50;99.90;;;;;;5378547;26;20380;-81
2024/04/19 10:18:24;;;;;;;8.40;7.60;;;6.30;99.90;;;;;;5377227;26;20421;-82
2024/04/19 10:20:50;;;;;;;8.90;8.00;;;6.50;99.90;;;;;;5380064;26;20766;-82
2024/04/19 10:23:16;;;;;;;9.25;7.70;;;6.70;99.90;;;;;;5369024;26;20333;-82
2024/04/19 10:25:41;;;;;;;9.30;7.85;;;6.60;99.90;;;;;;5365938;26;20318;-83
2024/04/19 10:28:10;;;;;;;7.47;6.77;;;6.70;99.90;;;;;;5379632;26;20330;-82
2024/04/19 10:30:37;;;;;;;7.40;6.70;;;7.10;99.90;;;;;;5379312;26;20334;-81
2024/04/19 10:33:02;;;;;;;8.38;6.90;;;7.10;99.90;;;;;;5379768;26;20407;-81
2024/04/19 10:35:35;;;;;;;7.47;6.77;;;6.80;99.90;;;;;;5380000;26;20330;-81
2024/04/19 10:38:01;;;;;;;7.20;6.32;;;7.10;99.90;;;;;;5379145;26;20326;-82
2024/04/19 10:40:27;;;;;;;6.55;5.95;;;7.20;99.90;;;;;;5379828;26;20805;-80
2024/04/19 10:43:02;;;;;;;6.97;6.25;;;7.50;99.90;;;;;;5376538;26;20334;-81
2024/04/19 10:45:30;;;;;;;6.90;6.20;;;7.10;99.90;;;;;;5377973;26;20342;-81
2024/04/19 10:47:57;;;;;;;6.28;5.70;;;7.20;99.90;;;;;;5378899;26;20331;-81
2024/04/19 10:50:23;;;;;;;5.80;5.30;;;7.60;99.90;;;;;;5377710;26;20338;-82
2024/04/19 10:52:51;;;;;;;6.10;5.50;;;7.50;99.90;;;;;;5380770;26;20326;-81
2024/04/19 10:55:17;;;;;;;5.65;5.05;;;8.20;99.90;;;;;;5382764;26;20327;-81
2024/04/19 10:57:42;;;;;;;6.13;5.53;;;7.60;99.90;;;;;;5381729;26;20335;-80
2024/04/19 11:00:09;;;;;;;5.50;5.00;;;7.60;99.90;;;;;;5382077;26;20384;-80
2024/04/19 11:02:37;;;;;;;6.00;5.40;;;7.60;99.90;;;;;;5380557;26;20415;-81
2024/04/19 11:05:04;;;;;;;5.72;5.13;;;7.60;99.90;;;;;;5380111;26;20342;-80
2024/04/19 11:07:30;;;;;;;5.15;4.65;;;7.60;99.90;;;;;;5381010;26;20330;-80
2024/04/19 11:09:56;;;;;;;6.00;5.40;;;7.60;99.90;;;;;;5381593;26;20330;-80
2024/04/19 11:12:23;;;;;;;5.30;4.80;;;7.40;99.90;;;;;;5381835;26;20420;-80
2024/04/19 11:14:48;;;;;;;5.50;5.00;;;7.60;99.90;;;;;;5372996;26;20848;-80
2024/04/19 11:17:15;;;;;;;6.53;5.30;;;10.30;99.90;;;;;;5378743;26;20371;-80
2024/04/19 11:19:40;;;;;;;5.40;4.90;;;7.50;99.90;;;;;;5379230;26;20353;-79
2024/04/19 11:22:06;;;;;;;5.73;5.00;;;7.70;99.90;;;;;;5381268;26;20330;-79
2024/04/19 11:24:34;;;;;;;5.30;4.40;;;7.60;99.90;;;;;;5369159;26;20326;-80
2024/04/19 11:27:00;;;;;;;5.60;5.00;;;7.60;99.90;;;;;;5379097;26;20421;-79
2024/04/19 11:29:26;;;;;;;5.90;5.30;;;7.80;99.90;;;;;;5381408;26;20330;-80
2024/04/19 11:31:51;;;;;;;5.20;4.70;;;7.80;99.90;;;;;;5380898;26;20322;-79
2024/04/19 11:34:17;;;;;;;6.28;4.70;;;7.70;99.90;;;;;;5376364;26;20348;-80
2024/04/19 11:36:45;;;;;;;6.18;5.45;;;7.90;99.90;;;;;;5380541;26;20322;-79
2024/04/19 11:39:11;;;;;;;5.68;4.70;;;7.40;99.90;;;;;;5379383;26;20337;-79
2024/04/19 11:41:38;;;;;;;5.00;4.50;;;7.60;99.90;;;;;;5396310;26;20829;-79
2024/04/19 11:44:05;;;;;;;5.97;4.70;;;7.60;99.90;;;;;;5378373;26;20327;-79
2024/04/19 11:46:31;;;;;;;5.95;4.82;;;7.50;99.90;;;;;;5378720;26;20740;-80
2024/04/19 11:48:58;;;;;;;7.55;4.45;;;7.50;99.90;;;;;;5380641;26;20326;-79
2024/04/19 11:51:25;;;;;;;5.82;5.22;;;7.30;99.90;;;;;;5378912;26;20393;-79
2024/04/19 11:53:50;;;;;;;7.30;5.55;;;7.00;99.90;;;;;;5380887;26;20361;-79
2024/04/19 11:56:16;;;;;;;6.68;5.45;;;6.90;99.90;;;;;;5378424;26;20328;-78
2024/04/19 11:58:43;;;;;;;6.65;5.55;;;7.20;99.90;;;;;;5346901;26;21156;-79
2024/04/19 12:01:09;;;;;;;4.60;4.20;;;7.20;99.90;;;;;;5348482;26;20380;-79
2024/04/19 12:03:34;;;;;;;5.13;4.63;;;7.00;99.90;;;;;;5349190;26;20333;-79
2024/04/19 12:06:00;;;;;;;5.80;4.63;;;6.80;99.90;;;;;;5346800;26;20747;-78
2024/04/19 12:08:25;;;;;;;5.63;5.13;;;6.90;99.90;;;;;;5379653;26;20338;-80
2024/04/19 12:10:51;;;;;;;5.30;4.80;;;6.90;99.90;;;;;;5376290;26;20373;-79
2024/04/19 12:13:16;;;;;;;5.63;4.75;;;6.70;99.90;;;;;;5381344;26;20326;-80
2024/04/19 12:15:42;;;;;;;5.95;4.80;;;6.80;99.90;;;;;;5373581;26;20329;-79
2024/04/19 12:18:07;;;;;;;5.25;4.00;;;6.70;99.90;;;;;;5350722;26;20365;-79
2024/04/19 12:20:34;;;;;;;7.15;4.60;;;6.70;99.90;;;;;;5351154;26;21509;-79
2024/04/19 12:23:00;;;;;;;4.70;4.10;;;6.60;99.90;;;;;;5371357;26;20368;-79
2024/04/19 12:25:26;;;;;;;5.40;4.57;;;6.60;99.90;;;;;;5378532;26;20326;-79
2024/04/19 12:27:51;;;;;;;5.07;4.50;;;6.50;99.90;;;;;;5379835;26;20363;-79
2024/04/19 12:30:17;;;;;;;5.30;4.80;;;6.30;99.90;;;;;;5380935;26;20723;-78
2024/04/19 12:32:43;;;;;;;4.75;4.03;;;6.40;99.90;;;;;;5382917;26;20364;-78
2024/04/19 12:35:12;;;;;;;4.25;3.85;;;6.40;99.90;;;;;;5383573;26;20444;-78
2024/04/19 12:37:38;;;;;;;5.70;3.70;;;6.20;99.90;;;;;;5379530;26;20342;-78
2024/04/19 12:40:04;;;;;;;4.70;3.58;;;6.50;99.90;;;;;;5382732;26;20397;-79
2024/04/19 12:42:30;;;;;;;3.80;3.50;;;6.50;99.90;;;;;;5381667;26;20338;-79
2024/04/19 12:44:56;;;;;;;4.18;3.78;;;6.00;99.90;;;;;;5381724;26;20378;-78
2024/04/19 12:47:21;;;;;;;3.42;3.13;;;6.60;99.90;;;;;;5381464;26;20379;-82
2024/04/19 12:49:47;;;;;;;4.63;2.90;;;6.80;99.90;;;;;;5380558;26;20330;-78
2024/04/19 12:52:12;;;;;;;4.50;3.40;;;6.70;99.90;;;;;;5380782;26;20345;-79
2024/04/19 12:54:38;;;;;;;4.40;3.53;;;6.70;99.90;;;;;;5380392;26;20432;-79
2024/04/19 12:57:04;;;;;;;3.45;3.03;;;6.60;99.90;;;;;;5379023;26;20334;-79
2024/04/19 12:59:30;;;;;;;4.43;3.20;;;6.70;99.90;;;;;;5379588;26;20963;-79